sensor_id;sensor_type;location;lat;lon;timestamp;pressure;altitude;pressure_sealevel;temperature;humidity
11329;BME280;5719;42.714;23.732;2023-02-23T00:00:30;94292.97;;;6.53;62.17
11329;BME280;5719;42.714;23.732;2023-02-23T00:02:59;94291.31;;;6.52;62.71
11329;BME280;5719;42.714;23.732;2023-02-23T00:05:30;94281.22;;;6.49;62.88
11329;BME280;5719;42.714;23.732;2023-02-23T00:07:57;94300.78;;;6.52;63.10
11329;BME280;5719;42.714;23.732;2023-02-23T00:10:24;94285.38;;;6.52;63.84
11329;BME280;5719;42.714;23.732;2023-02-23T00:12:55;94282.72;;;6.53;64.75
11329;BME280;5719;42.714;23.732;2023-02-23T00:15:23;94279.59;;;6.48;65.10
11329;BME280;5719;42.714;23.732;2023-02-23T00:17:52;94284.38;;;6.54;65.30
11329;BME280;5719;42.714;23.732;2023-02-23T00:20:18;94287.00;;;6.53;66.29
11329;BME280;5719;42.714;23.732;2023-02-23T00:22:53;94279.50;;;6.35;66.33
11329;BME280;5719;42.714;23.732;2023-02-23T00:25:21;94285.63;;;6.33;66.00
11329;BME280;5719;42.714;23.732;2023-02-23T00:27:48;94285.63;;;6.33;66.78
11329;BME280;5719;42.714;23.732;2023-02-23T00:30:16;94290.03;;;6.31;67.14
11329;BME280;5719;42.714;23.732;2023-02-23T00:32:44;94285.81;;;6.30;68.57
11329;BME280;5719;42.714;23.732;2023-02-23T00:35:11;94293.53;;;6.30;67.56
11329;BME280;5719;42.714;23.732;2023-02-23T00:37:42;94293.84;;;6.24;66.70
11329;BME280;5719;42.714;23.732;2023-02-23T00:40:13;94285.03;;;6.14;65.04
11329;BME280;5719;42.714;23.732;2023-02-23T00:42:42;94289.59;;;6.09;64.90
11329;BME280;5719;42.714;23.732;2023-02-23T00:45:10;94294.19;;;6.04;65.12
11329;BME280;5719;42.714;23.732;2023-02-23T00:47:38;94295.19;;;6.01;65.57
11329;BME280;5719;42.714;23.732;2023-02-23T00:50:08;94295.34;;;5.98;66.97
11329;BME280;5719;42.714;23.732;2023-02-23T00:52:38;94297.94;;;5.82;66.92
11329;BME280;5719;42.714;23.732;2023-02-23T00:55:06;94297.19;;;5.80;67.31
11329;BME280;5719;42.714;23.732;2023-02-23T00:57:35;94296.38;;;5.80;66.71
11329;BME280;5719;42.714;23.732;2023-02-23T01:00:03;94290.41;;;5.79;67.11
11329;BME280;5719;42.714;23.732;2023-02-23T01:02:41;94289.69;;;5.77;67.39
11329;BME280;5719;42.714;23.732;2023-02-23T01:05:09;94292.41;;;5.74;67.40
11329;BME280;5719;42.714;23.732;2023-02-23T01:07:37;94296.06;;;5.70;66.58
11329;BME280;5719;42.714;23.732;2023-02-23T01:10:05;94288.56;;;5.67;67.14
11329;BME280;5719;42.714;23.732;2023-02-23T01:12:47;94291.28;;;5.64;66.77
11329;BME280;5719;42.714;23.732;2023-02-23T01:15:15;94294.00;;;5.61;66.69
11329;BME280;5719;42.714;23.732;2023-02-23T01:17:42;94300.97;;;5.59;66.29
11329;BME280;5719;42.714;23.732;2023-02-23T01:20:10;94281.72;;;5.52;67.20
11329;BME280;5719;42.714;23.732;2023-02-23T01:22:43;94294.09;;;5.60;68.00
11329;BME280;5719;42.714;23.732;2023-02-23T01:25:10;94289.81;;;5.60;68.35
11329;BME280;5719;42.714;23.732;2023-02-23T01:27:37;94296.56;;;5.61;69.62
11329;BME280;5719;42.714;23.732;2023-02-23T01:30:08;94291.44;;;5.61;69.29
11329;BME280;5719;42.714;23.732;2023-02-23T01:32:35;94286.59;;;5.57;69.65
11329;BME280;5719;42.714;23.732;2023-02-23T01:35:03;94272.72;;;5.45;67.30
11329;BME280;5719;42.714;23.732;2023-02-23T01:37:32;94276.53;;;5.38;67.78
11329;BME280;5719;42.714;23.732;2023-02-23T01:40:00;94283.44;;;5.36;67.56
11329;BME280;5719;42.714;23.732;2023-02-23T01:42:30;94282.91;;;5.31;68.04
11329;BME280;5719;42.714;23.732;2023-02-23T01:45:24;94290.41;;;5.34;67.72
11329;BME280;5719;42.714;23.732;2023-02-23T01:47:54;94287.19;;;5.30;68.01
11329;BME280;5719;42.714;23.732;2023-02-23T01:50:23;94294.94;;;5.29;68.72
11329;BME280;5719;42.714;23.732;2023-02-23T01:52:52;94292.50;;;5.27;67.92
11329;BME280;5719;42.714;23.732;2023-02-23T01:55:22;94279.31;;;5.18;67.70
11329;BME280;5719;42.714;23.732;2023-02-23T01:57:53;94291.81;;;5.24;67.90
11329;BME280;5719;42.714;23.732;2023-02-23T02:00:25;94293.63;;;5.22;68.16
11329;BME280;5719;42.714;23.732;2023-02-23T02:02:52;94286.28;;;5.16;68.56
11329;BME280;5719;42.714;23.732;2023-02-23T02:05:20;94279.50;;;5.15;69.52
11329;BME280;5719;42.714;23.732;2023-02-23T02:07:48;94290.34;;;5.20;70.18
11329;BME280;5719;42.714;23.732;2023-02-23T02:10:25;94287.00;;;5.18;69.99
11329;BME280;5719;42.714;23.732;2023-02-23T02:13:16;94288.03;;;5.15;68.52
11329;BME280;5719;42.714;23.732;2023-02-23T02:16:16;94279.84;;;5.09;67.58
11329;BME280;5719;42.714;23.732;2023-02-23T02:19:01;94280.09;;;5.04;66.62
11329;BME280;5719;42.714;23.732;2023-02-23T02:25:11;94280.06;;;4.88;67.01
11329;BME280;5719;42.714;23.732;2023-02-23T02:28:21;94278.59;;;4.84;67.36
11329;BME280;5719;42.714;23.732;2023-02-23T02:31:15;94284.03;;;4.78;67.09
11329;BME280;5719;42.714;23.732;2023-02-23T02:34:24;94277.41;;;4.74;68.54
11329;BME280;5719;42.714;23.732;2023-02-23T02:40:17;94284.53;;;4.69;70.30
11329;BME280;5719;42.714;23.732;2023-02-23T02:42:59;94275.41;;;4.64;70.65
11329;BME280;5719;42.714;23.732;2023-02-23T02:45:42;94278.06;;;4.62;70.96
11329;BME280;5719;42.714;23.732;2023-02-23T02:48:19;94271.75;;;4.52;70.85
11329;BME280;5719;42.714;23.732;2023-02-23T02:50:53;94287.78;;;4.56;71.55
11329;BME280;5719;42.714;23.732;2023-02-23T02:53:25;94280.19;;;4.54;71.39
11329;BME280;5719;42.714;23.732;2023-02-23T02:55:57;94282.75;;;4.54;71.80
11329;BME280;5719;42.714;23.732;2023-02-23T02:58:30;94286.22;;;4.53;72.02
11329;BME280;5719;42.714;23.732;2023-02-23T03:01:04;94275.97;;;4.53;72.30
11329;BME280;5719;42.714;23.732;2023-02-23T03:03:49;94275.97;;;4.53;73.06
11329;BME280;5719;42.714;23.732;2023-02-23T03:06:36;94287.22;;;4.51;72.70
11329;BME280;5719;42.714;23.732;2023-02-23T03:09:33;94280.44;;;4.50;72.50
11329;BME280;5719;42.714;23.732;2023-02-23T03:12:27;94286.53;;;4.47;72.04
11329;BME280;5719;42.714;23.732;2023-02-23T03:15:24;94270.00;;;4.37;71.07
11329;BME280;5719;42.714;23.732;2023-02-23T03:18:27;94281.88;;;4.38;71.92
11329;BME280;5719;42.714;23.732;2023-02-23T03:21:15;94284.69;;;4.33;71.21
11329;BME280;5719;42.714;23.732;2023-02-23T03:24:07;94270.69;;;4.23;71.82
11329;BME280;5719;42.714;23.732;2023-02-23T03:26:57;94281.53;;;4.28;73.85
11329;BME280;5719;42.714;23.732;2023-02-23T03:29:49;94282.53;;;4.26;73.31
11329;BME280;5719;42.714;23.732;2023-02-23T03:32:40;94283.41;;;4.25;72.61
11329;BME280;5719;42.714;23.732;2023-02-23T03:35:30;94287.78;;;4.23;72.42
11329;BME280;5719;42.714;23.732;2023-02-23T03:38:20;94282.75;;;4.21;72.25
11329;BME280;5719;42.714;23.732;2023-02-23T03:41:07;94288.69;;;4.22;72.31
11329;BME280;5719;42.714;23.732;2023-02-23T03:43:55;94280.41;;;4.17;72.91
11329;BME280;5719;42.714;23.732;2023-02-23T03:46:43;94283.06;;;4.15;73.34
11329;BME280;5719;42.714;23.732;2023-02-23T03:49:33;94288.25;;;4.14;74.24
11329;BME280;5719;42.714;23.732;2023-02-23T03:52:21;94273.34;;;4.05;72.75
11329;BME280;5719;42.714;23.732;2023-02-23T03:55:11;94279.97;;;4.09;72.33
11329;BME280;5719;42.714;23.732;2023-02-23T03:57:59;94290.19;;;4.09;72.46
11329;BME280;5719;42.714;23.732;2023-02-23T04:00:47;94279.59;;;3.99;71.61
11329;BME280;5719;42.714;23.732;2023-02-23T04:03:36;94296.69;;;3.99;72.11
11329;BME280;5719;42.714;23.732;2023-02-23T04:06:24;94282.84;;;3.85;71.75
11329;BME280;5719;42.714;23.732;2023-02-23T04:09:10;94292.09;;;3.88;71.92
11329;BME280;5719;42.714;23.732;2023-02-23T04:11:57;94299.97;;;3.83;72.44
11329;BME280;5719;42.714;23.732;2023-02-23T04:14:52;94289.28;;;3.75;71.96
11329;BME280;5719;42.714;23.732;2023-02-23T04:17:21;94298.56;;;3.78;72.87
11329;BME280;5719;42.714;23.732;2023-02-23T04:19:56;94301.34;;;3.73;72.85
11329;BME280;5719;42.714;23.732;2023-02-23T04:22:24;94303.16;;;3.71;73.33
11329;BME280;5719;42.714;23.732;2023-02-23T04:24:51;94296.38;;;3.70;72.83
11329;BME280;5719;42.714;23.732;2023-02-23T04:27:17;94284.03;;;3.61;73.57
11329;BME280;5719;42.714;23.732;2023-02-23T04:29:44;94291.69;;;3.61;73.46
11329;BME280;5719;42.714;23.732;2023-02-23T04:32:13;94296.69;;;3.64;73.86
11329;BME280;5719;42.714;23.732;2023-02-23T04:34:41;94307.59;;;3.68;73.73
11329;BME280;5719;42.714;23.732;2023-02-23T04:37:09;94304.25;;;3.66;72.63
11329;BME280;5719;42.714;23.732;2023-02-23T04:39:37;94302.69;;;3.63;72.61
11329;BME280;5719;42.714;23.732;2023-02-23T04:42:03;94300.34;;;3.59;72.38
11329;BME280;5719;42.714;23.732;2023-02-23T04:44:30;94286.16;;;3.53;73.31
11329;BME280;5719;42.714;23.732;2023-02-23T04:46:57;94300.03;;;3.65;72.61
11329;BME280;5719;42.714;23.732;2023-02-23T04:49:24;94311.09;;;3.65;72.47
11329;BME280;5719;42.714;23.732;2023-02-23T04:51:51;94316.31;;;3.64;72.56
11329;BME280;5719;42.714;23.732;2023-02-23T04:54:20;94306.13;;;3.62;72.38
11329;BME280;5719;42.714;23.732;2023-02-23T04:56:46;94316.50;;;3.59;72.81
11329;BME280;5719;42.714;23.732;2023-02-23T04:59:13;94304.56;;;3.60;73.64
11329;BME280;5719;42.714;23.732;2023-02-23T05:01:42;94306.34;;;3.58;73.79
11329;BME280;5719;42.714;23.732;2023-02-23T05:04:09;94300.56;;;3.54;73.96
11329;BME280;5719;42.714;23.732;2023-02-23T05:06:36;94303.94;;;3.55;75.14
11329;BME280;5719;42.714;23.732;2023-02-23T05:09:03;94295.91;;;3.45;75.46
11329;BME280;5719;42.714;23.732;2023-02-23T05:11:32;94309.16;;;3.53;74.34
11329;BME280;5719;42.714;23.732;2023-02-23T05:13:59;94309.16;;;3.53;74.97
11329;BME280;5719;42.714;23.732;2023-02-23T05:16:26;94309.28;;;3.50;76.31
11329;BME280;5719;42.714;23.732;2023-02-23T05:18:53;94311.81;;;3.50;77.17
11329;BME280;5719;42.714;23.732;2023-02-23T05:21:20;94315.97;;;3.53;76.01
11329;BME280;5719;42.714;23.732;2023-02-23T05:23:47;94305.97;;;3.48;76.23
11329;BME280;5719;42.714;23.732;2023-02-23T05:26:15;94311.13;;;3.46;75.46
11329;BME280;5719;42.714;23.732;2023-02-23T05:28:43;94321.16;;;3.51;75.39
11329;BME280;5719;42.714;23.732;2023-02-23T05:31:11;94326.25;;;3.51;75.07
11329;BME280;5719;42.714;23.732;2023-02-23T05:33:38;94319.63;;;3.47;74.65
11329;BME280;5719;42.714;23.732;2023-02-23T05:36:08;94324.53;;;3.52;74.05
11329;BME280;5719;42.714;23.732;2023-02-23T05:38:35;94322.72;;;3.54;73.13
11329;BME280;5719;42.714;23.732;2023-02-23T05:41:06;94331.22;;;3.54;73.36
11329;BME280;5719;42.714;23.732;2023-02-23T05:43:33;94328.53;;;3.57;73.53
11329;BME280;5719;42.714;23.732;2023-02-23T05:46:05;94337.84;;;3.58;73.57
11329;BME280;5719;42.714;23.732;2023-02-23T05:48:32;94336.75;;;3.64;74.48
11329;BME280;5719;42.714;23.732;2023-02-23T05:51:00;94340.72;;;3.69;74.37
11329;BME280;5719;42.714;23.732;2023-02-23T05:53:27;94294.09;;;3.47;75.27
11329;BME280;5719;42.714;23.732;2023-02-23T05:55:54;94352.78;;;3.84;74.85
11329;BME280;5719;42.714;23.732;2023-02-23T05:58:21;94350.38;;;3.99;74.24
11329;BME280;5719;42.714;23.732;2023-02-23T06:00:48;94357.25;;;4.15;74.33
11329;BME280;5719;42.714;23.732;2023-02-23T06:03:17;94358.06;;;4.33;73.86
11329;BME280;5719;42.714;23.732;2023-02-23T06:05:48;94347.81;;;4.50;72.68
11329;BME280;5719;42.714;23.732;2023-02-23T06:08:15;94354.56;;;4.68;72.29
11329;BME280;5719;42.714;23.732;2023-02-23T06:10:42;94355.34;;;4.86;71.72
11329;BME280;5719;42.714;23.732;2023-02-23T06:13:09;94346.78;;;5.03;70.96
11329;BME280;5719;42.714;23.732;2023-02-23T06:15:36;94366.72;;;5.29;70.61
11329;BME280;5719;42.714;23.732;2023-02-23T06:18:03;94363.91;;;5.49;70.24
11329;BME280;5719;42.714;23.732;2023-02-23T06:20:31;94361.31;;;5.65;69.77
11329;BME280;5719;42.714;23.732;2023-02-23T06:22:58;94366.03;;;6.04;68.36
11329;BME280;5719;42.714;23.732;2023-02-23T06:25:25;94357.81;;;6.43;66.50
11329;BME280;5719;42.714;23.732;2023-02-23T06:27:52;94367.47;;;6.81;65.88
11329;BME280;5719;42.714;23.732;2023-02-23T06:30:19;94359.22;;;7.19;64.47
11329;BME280;5719;42.714;23.732;2023-02-23T06:32:47;94375.13;;;7.66;63.28
11329;BME280;5719;42.714;23.732;2023-02-23T06:35:14;94372.53;;;8.07;63.54
11329;BME280;5719;42.714;23.732;2023-02-23T06:37:42;94367.63;;;8.44;62.08
11329;BME280;5719;42.714;23.732;2023-02-23T06:40:10;94365.81;;;8.83;61.79
11329;BME280;5719;42.714;23.732;2023-02-23T06:42:37;94370.53;;;9.15;59.10
11329;BME280;5719;42.714;23.732;2023-02-23T06:45:04;94368.97;;;9.50;58.43
11329;BME280;5719;42.714;23.732;2023-02-23T06:47:31;94372.09;;;9.66;57.21
11329;BME280;5719;42.714;23.732;2023-02-23T06:49:59;94365.81;;;9.70;57.22
11329;BME280;5719;42.714;23.732;2023-02-23T06:52:26;94378.38;;;10.11;56.99
11329;BME280;5719;42.714;23.732;2023-02-23T06:54:54;94374.69;;;10.50;55.09
11329;BME280;5719;42.714;23.732;2023-02-23T06:57:21;94360.44;;;10.79;55.10
11329;BME280;5719;42.714;23.732;2023-02-23T06:59:48;94372.00;;;11.09;54.37
11329;BME280;5719;42.714;23.732;2023-02-23T07:02:15;94363.44;;;11.30;53.98
11329;BME280;5719;42.714;23.732;2023-02-23T07:04:42;94366.13;;;11.73;53.26
11329;BME280;5719;42.714;23.732;2023-02-23T07:07:10;94361.16;;;12.04;52.64
11329;BME280;5719;42.714;23.732;2023-02-23T07:09:38;94357.78;;;12.24;53.15
11329;BME280;5719;42.714;23.732;2023-02-23T07:12:06;94362.34;;;12.63;52.84
11329;BME280;5719;42.714;23.732;2023-02-23T07:14:33;94360.47;;;13.07;52.50
11329;BME280;5719;42.714;23.732;2023-02-23T07:17:01;94361.50;;;13.46;52.14
11329;BME280;5719;42.714;23.732;2023-02-23T07:19:28;94355.09;;;13.90;50.60
11329;BME280;5719;42.714;23.732;2023-02-23T07:21:55;94353.25;;;14.20;50.32
11329;BME280;5719;42.714;23.732;2023-02-23T07:24:22;94347.81;;;14.71;49.64
11329;BME280;5719;42.714;23.732;2023-02-23T07:26:49;94342.78;;;15.16;48.04
11329;BME280;5719;42.714;23.732;2023-02-23T07:29:17;94348.06;;;15.44;47.11
11329;BME280;5719;42.714;23.732;2023-02-23T07:31:44;94351.31;;;15.65;46.97
11329;BME280;5719;42.714;23.732;2023-02-23T07:34:14;94342.81;;;15.90;46.52
11329;BME280;5719;42.714;23.732;2023-02-23T07:36:41;94334.19;;;16.07;44.97
11329;BME280;5719;42.714;23.732;2023-02-23T07:39:08;94342.53;;;16.38;45.73
11329;BME280;5719;42.714;23.732;2023-02-23T07:41:35;94334.22;;;16.96;44.12
11329;BME280;5719;42.714;23.732;2023-02-23T07:44:02;94339.47;;;17.22;43.56
11329;BME280;5719;42.714;23.732;2023-02-23T07:46:30;94344.81;;;17.63;42.90
11329;BME280;5719;42.714;23.732;2023-02-23T07:48:57;94338.50;;;17.48;42.94
11329;BME280;5719;42.714;23.732;2023-02-23T07:51:24;94335.41;;;17.79;42.60
11329;BME280;5719;42.714;23.732;2023-02-23T07:53:51;94333.75;;;17.70;41.81
11329;BME280;5719;42.714;23.732;2023-02-23T07:56:19;94329.13;;;17.12;43.21
11329;BME280;5719;42.714;23.732;2023-02-23T07:58:46;94336.31;;;17.95;42.42
11329;BME280;5719;42.714;23.732;2023-02-23T08:01:13;94340.06;;;18.51;40.54
11329;BME280;5719;42.714;23.732;2023-02-23T08:03:42;94336.63;;;18.50;40.98
11329;BME280;5719;42.714;23.732;2023-02-23T08:06:14;94341.06;;;19.15;39.95
11329;BME280;5719;42.714;23.732;2023-02-23T08:08:42;94344.47;;;19.39;38.37
11329;BME280;5719;42.714;23.732;2023-02-23T08:11:08;94336.66;;;19.23;39.42
11329;BME280;5719;42.714;23.732;2023-02-23T08:13:36;94332.06;;;18.52;40.52
11329;BME280;5719;42.714;23.732;2023-02-23T08:16:04;94339.09;;;19.49;39.22
11329;BME280;5719;42.714;23.732;2023-02-23T08:18:31;94327.25;;;20.08;37.47
11329;BME280;5719;42.714;23.732;2023-02-23T08:21:00;94336.03;;;19.84;37.36
11329;BME280;5719;42.714;23.732;2023-02-23T08:23:28;94331.78;;;19.75;37.76
11329;BME280;5719;42.714;23.732;2023-02-23T08:25:55;94331.75;;;20.22;36.90
11329;BME280;5719;42.714;23.732;2023-02-23T08:28:23;94332.03;;;20.43;36.26
11329;BME280;5719;42.714;23.732;2023-02-23T08:30:51;94320.09;;;20.55;36.08
11329;BME280;5719;42.714;23.732;2023-02-23T08:33:19;94324.06;;;20.29;36.58
11329;BME280;5719;42.714;23.732;2023-02-23T08:35:45;94327.22;;;20.70;36.05
11329;BME280;5719;42.714;23.732;2023-02-23T08:38:14;94334.81;;;21.10;35.38
11329;BME280;5719;42.714;23.732;2023-02-23T08:40:42;94333.13;;;21.55;34.48
11329;BME280;5719;42.714;23.732;2023-02-23T08:43:09;94330.66;;;21.38;34.87
11329;BME280;5719;42.714;23.732;2023-02-23T08:45:36;94327.13;;;21.61;34.36
11329;BME280;5719;42.714;23.732;2023-02-23T08:48:04;94331.97;;;22.01;34.02
11329;BME280;5719;42.714;23.732;2023-02-23T08:50:31;94331.41;;;22.20;33.27
11329;BME280;5719;42.714;23.732;2023-02-23T08:52:58;94331.88;;;22.45;32.76
11329;BME280;5719;42.714;23.732;2023-02-23T08:55:26;94327.28;;;22.47;33.03
11329;BME280;5719;42.714;23.732;2023-02-23T08:57:53;94327.56;;;22.23;33.72
11329;BME280;5719;42.714;23.732;2023-02-23T09:00:21;94331.63;;;22.55;33.06
11329;BME280;5719;42.714;23.732;2023-02-23T09:02:48;94324.81;;;22.67;33.24
11329;BME280;5719;42.714;23.732;2023-02-23T09:05:15;94329.38;;;23.15;32.69
11329;BME280;5719;42.714;23.732;2023-02-23T09:07:44;94327.88;;;23.06;32.27
11329;BME280;5719;42.714;23.732;2023-02-23T09:10:12;94334.16;;;23.05;32.84
11329;BME280;5719;42.714;23.732;2023-02-23T09:12:41;94332.47;;;22.98;32.70
11329;BME280;5719;42.714;23.732;2023-02-23T09:15:09;94331.91;;;22.81;33.02
11329;BME280;5719;42.714;23.732;2023-02-23T09:17:36;94332.47;;;23.19;32.54
11329;BME280;5719;42.714;23.732;2023-02-23T09:20:04;94331.53;;;23.05;32.46
11329;BME280;5719;42.714;23.732;2023-02-23T09:22:32;94328.25;;;22.82;32.69
11329;BME280;5719;42.714;23.732;2023-02-23T09:24:59;94329.47;;;23.77;31.75
11329;BME280;5719;42.714;23.732;2023-02-23T09:27:26;94325.22;;;23.49;31.98
11329;BME280;5719;42.714;23.732;2023-02-23T09:29:54;94323.44;;;23.90;31.42
11329;BME280;5719;42.714;23.732;2023-02-23T09:32:21;94318.75;;;24.26;31.76
11329;BME280;5719;42.714;23.732;2023-02-23T09:34:48;94314.25;;;24.81;30.59
11329;BME280;5719;42.714;23.732;2023-02-23T09:37:16;94318.50;;;24.69;30.73
11329;BME280;5719;42.714;23.732;2023-02-23T09:39:43;94307.44;;;25.06;29.94
11329;BME280;5719;42.714;23.732;2023-02-23T09:42:23;94317.06;;;23.71;32.02
11329;BME280;5719;42.714;23.732;2023-02-23T09:45:11;94317.25;;;24.52;31.22
11329;BME280;5719;42.714;23.732;2023-02-23T09:47:51;94313.53;;;25.46;29.74
11329;BME280;5719;42.714;23.732;2023-02-23T09:50:24;94312.50;;;25.67;29.54
11329;BME280;5719;42.714;23.732;2023-02-23T09:52:58;94317.97;;;24.86;29.91
11329;BME280;5719;42.714;23.732;2023-02-23T09:55:26;94316.06;;;24.74;30.72
11329;BME280;5719;42.714;23.732;2023-02-23T09:57:56;94315.13;;;25.93;29.81
11329;BME280;5719;42.714;23.732;2023-02-23T10:00:25;94311.38;;;26.14;28.82
11329;BME280;5719;42.714;23.732;2023-02-23T10:03:02;94308.47;;;26.79;28.31
11329;BME280;5719;42.714;23.732;2023-02-23T10:05:39;94315.50;;;26.61;28.00
11329;BME280;5719;42.714;23.732;2023-02-23T10:08:18;94310.69;;;26.45;28.41
11329;BME280;5719;42.714;23.732;2023-02-23T10:10:49;94308.63;;;26.47;28.14
11329;BME280;5719;42.714;23.732;2023-02-23T10:13:21;94307.41;;;25.32;29.87
11329;BME280;5719;42.714;23.732;2023-02-23T10:15:55;94298.25;;;25.42;29.49
11329;BME280;5719;42.714;23.732;2023-02-23T10:18:32;94305.25;;;26.26;28.48
11329;BME280;5719;42.714;23.732;2023-02-23T10:21:04;94307.63;;;25.11;29.60
11329;BME280;5719;42.714;23.732;2023-02-23T10:23:36;94293.16;;;24.27;30.54
11329;BME280;5719;42.714;23.732;2023-02-23T10:26:06;94295.59;;;25.22;29.84
11329;BME280;5719;42.714;23.732;2023-02-23T10:28:35;94289.19;;;24.51;29.94
11329;BME280;5719;42.714;23.732;2023-02-23T10:31:19;94288.09;;;25.38;29.33
11329;BME280;5719;42.714;23.732;2023-02-23T10:33:51;94284.06;;;26.13;28.40
11329;BME280;5719;42.714;23.732;2023-02-23T10:36:30;94288.19;;;25.96;28.43
11329;BME280;5719;42.714;23.732;2023-02-23T10:38:59;94272.44;;;26.97;27.88
11329;BME280;5719;42.714;23.732;2023-02-23T10:41:26;94275.56;;;27.43;26.97
11329;BME280;5719;42.714;23.732;2023-02-23T10:43:53;94274.25;;;28.13;26.54
11329;BME280;5719;42.714;23.732;2023-02-23T10:46:34;94269.59;;;28.09;26.12
11329;BME280;5719;42.714;23.732;2023-02-23T10:49:02;94275.72;;;28.27;25.83
11329;BME280;5719;42.714;23.732;2023-02-23T10:51:33;94268.13;;;28.31;25.48
11329;BME280;5719;42.714;23.732;2023-02-23T10:54:36;94267.91;;;28.33;25.63
11329;BME280;5719;42.714;23.732;2023-02-23T10:57:04;94260.31;;;28.66;25.23
11329;BME280;5719;42.714;23.732;2023-02-23T10:59:33;94266.78;;;28.40;25.46
11329;BME280;5719;42.714;23.732;2023-02-23T11:02:14;94266.88;;;27.79;25.47
11329;BME280;5719;42.714;23.732;2023-02-23T11:04:50;94260.22;;;28.06;25.83
11329;BME280;5719;42.714;23.732;2023-02-23T11:07:21;94258.09;;;28.33;24.98
11329;BME280;5719;42.714;23.732;2023-02-23T11:09:48;94251.00;;;28.57;24.79
11329;BME280;5719;42.714;23.732;2023-02-23T11:12:19;94246.53;;;28.99;24.47
11329;BME280;5719;42.714;23.732;2023-02-23T11:14:48;94249.13;;;28.27;24.88
11329;BME280;5719;42.714;23.732;2023-02-23T11:17:35;94248.88;;;28.17;25.00
11329;BME280;5719;42.714;23.732;2023-02-23T11:20:05;94246.38;;;27.37;25.86
11329;BME280;5719;42.714;23.732;2023-02-23T11:22:35;94255.13;;;26.18;26.89
11329;BME280;5719;42.714;23.732;2023-02-23T11:25:14;94235.34;;;26.59;26.78
11329;BME280;5719;42.714;23.732;2023-02-23T11:27:46;94242.59;;;27.26;26.38
11329;BME280;5719;42.714;23.732;2023-02-23T11:30:15;94237.94;;;27.71;25.42
11329;BME280;5719;42.714;23.732;2023-02-23T11:32:49;94225.47;;;27.71;25.44
11329;BME280;5719;42.714;23.732;2023-02-23T11:35:29;94234.38;;;28.32;25.53
11329;BME280;5719;42.714;23.732;2023-02-23T11:37:56;94241.69;;;28.66;25.44
11329;BME280;5719;42.714;23.732;2023-02-23T11:40:25;94234.56;;;29.31;24.35
11329;BME280;5719;42.714;23.732;2023-02-23T11:42:54;94235.41;;;29.90;23.17
11329;BME280;5719;42.714;23.732;2023-02-23T11:45:24;94236.97;;;30.02;23.97
11329;BME280;5719;42.714;23.732;2023-02-23T11:47:56;94225.41;;;30.48;22.78
11329;BME280;5719;42.714;23.732;2023-02-23T11:50:26;94227.34;;;30.81;23.07
11329;BME280;5719;42.714;23.732;2023-02-23T11:53:00;94227.59;;;30.40;23.51
11329;BME280;5719;42.714;23.732;2023-02-23T11:55:28;94230.69;;;30.60;22.52
11329;BME280;5719;42.714;23.732;2023-02-23T11:58:07;94222.47;;;30.50;22.68
11329;BME280;5719;42.714;23.732;2023-02-23T12:00:35;94222.41;;;30.33;22.68
11329;BME280;5719;42.714;23.732;2023-02-23T12:03:03;94226.13;;;30.32;22.73
11329;BME280;5719;42.714;23.732;2023-02-23T12:05:31;94229.38;;;30.34;22.83
11329;BME280;5719;42.714;23.732;2023-02-23T12:08:02;94224.75;;;30.30;22.97
11329;BME280;5719;42.714;23.732;2023-02-23T12:10:35;94221.06;;;30.19;22.71
11329;BME280;5719;42.714;23.732;2023-02-23T12:13:11;94222.75;;;29.74;22.88
11329;BME280;5719;42.714;23.732;2023-02-23T12:15:47;94221.84;;;28.80;23.54
11329;BME280;5719;42.714;23.732;2023-02-23T12:18:28;94218.59;;;28.48;24.29
11329;BME280;5719;42.714;23.732;2023-02-23T12:21:02;94219.41;;;27.40;25.04
11329;BME280;5719;42.714;23.732;2023-02-23T12:23:32;94223.59;;;27.04;26.82
11329;BME280;5719;42.714;23.732;2023-02-23T12:26:04;94219.06;;;26.87;26.93
11329;BME280;5719;42.714;23.732;2023-02-23T12:28:36;94220.69;;;26.12;27.71
11329;BME280;5719;42.714;23.732;2023-02-23T12:31:20;94220.16;;;25.83;28.28
11329;BME280;5719;42.714;23.732;2023-02-23T12:33:52;94218.25;;;26.10;27.68
11329;BME280;5719;42.714;23.732;2023-02-23T12:36:25;94220.34;;;25.95;28.46
11329;BME280;5719;42.714;23.732;2023-02-23T12:38:59;94224.44;;;25.91;28.19
11329;BME280;5719;42.714;23.732;2023-02-23T12:41:34;94221.91;;;25.45;28.30
11329;BME280;5719;42.714;23.732;2023-02-23T12:44:10;94226.56;;;24.77;29.56
11329;BME280;5719;42.714;23.732;2023-02-23T12:46:43;94222.44;;;24.22;30.07
11329;BME280;5719;42.714;23.732;2023-02-23T12:49:19;94220.41;;;24.31;30.35
11329;BME280;5719;42.714;23.732;2023-02-23T12:51:53;94220.34;;;24.11;31.02
11329;BME280;5719;42.714;23.732;2023-02-23T12:54:21;94222.44;;;24.22;30.45
11329;BME280;5719;42.714;23.732;2023-02-23T12:56:59;94222.88;;;24.52;30.84
11329;BME280;5719;42.714;23.732;2023-02-23T12:59:51;94227.88;;;23.67;32.24
11329;BME280;5719;42.714;23.732;2023-02-23T13:02:27;94230.03;;;23.22;32.26
11329;BME280;5719;42.714;23.732;2023-02-23T13:05:15;94222.09;;;23.50;32.04
11329;BME280;5719;42.714;23.732;2023-02-23T13:07:58;94223.53;;;23.25;32.92
11329;BME280;5719;42.714;23.732;2023-02-23T13:10:33;94219.63;;;22.86;32.99
11329;BME280;5719;42.714;23.732;2023-02-23T13:13:09;94222.66;;;22.26;34.25
11329;BME280;5719;42.714;23.732;2023-02-23T13:15:49;94229.28;;;22.01;34.46
11329;BME280;5719;42.714;23.732;2023-02-23T13:18:23;94225.69;;;22.44;34.32
11329;BME280;5719;42.714;23.732;2023-02-23T13:21:00;94226.50;;;22.45;34.16
11329;BME280;5719;42.714;23.732;2023-02-23T13:23:33;94219.88;;;22.28;34.04
11329;BME280;5719;42.714;23.732;2023-02-23T13:26:09;94219.47;;;22.10;34.80
11329;BME280;5719;42.714;23.732;2023-02-23T13:28:49;94228.19;;;22.10;34.64
11329;BME280;5719;42.714;23.732;2023-02-23T13:31:23;94234.94;;;21.69;35.46
11329;BME280;5719;42.714;23.732;2023-02-23T13:33:54;94231.31;;;21.99;35.13
11329;BME280;5719;42.714;23.732;2023-02-23T13:36:25;94224.34;;;22.13;34.88
11329;BME280;5719;42.714;23.732;2023-02-23T13:42:24;94233.97;;;21.70;35.49